Time;durP1;ratioP1;P1;durP2;ratioP2;P2;SDS_P1;SDS_P2;PMS_P1;PMS_P2;Temp;Humidity;BMP_temperature;BMP_pressure;BME280_temperature;BME280_humidity;BME280_pressure;Samples;Min_cycle;Max_cycle;Signal;HPM_P1;HPM_P2
2021/12/24 00:01:42;;;;;;;;;;;18.50;47.70;;;;;;5115446;27;43162;-74
2021/12/24 00:04:09;;;;;;;;;;;18.60;47.90;;;;;;5112826;27;43055;-74
2021/12/24 00:06:35;;;;;;;;;;;18.50;47.80;;;;;;5113473;27;43253;-75
2021/12/24 00:09:02;;;;;;;;;;;18.50;47.80;;;;;;5114520;27;44036;-78
2021/12/24 00:11:27;;;;;;;;;;;18.50;48.30;;;;;;5113774;27;43749;-74
2021/12/24 00:13:53;;;;;;;;;;;18.60;48.00;;;;;;5113275;27;42926;-76
2021/12/24 00:16:24;;;;;;;;;;;18.50;48.20;;;;;;5115230;27;43113;-82
2021/12/24 00:19:13;;;;;;;;;;;18.50;48.20;;;;;;5113074;27;43229;-81
2021/12/24 00:35:30;;;;;;;;;;;18.50;48.50;;;;;;5125592;27;43070;-81
2021/12/24 00:38:01;;;;;;;;;;;18.50;48.50;;;;;;5125504;27;42844;-82
2021/12/24 00:40:26;;;;;;;;;;;18.50;48.60;;;;;;5125280;27;42836;-82
2021/12/24 00:42:53;;;;;;;;;;;18.50;48.60;;;;;;5119650;27;43756;-82
2021/12/24 00:45:24;;;;;;;;;;;18.50;48.60;;;;;;5111153;27;43032;-83
2021/12/24 00:47:50;;;;;;;;;;;18.50;48.60;;;;;;5114601;27;44157;-73
2021/12/24 00:50:20;;;;;;;;;;;18.40;48.60;;;;;;5113913;27;42948;-81
2021/12/24 00:52:51;;;;;;;;;;;18.40;48.60;;;;;;5109832;27;44333;-81
2021/12/24 00:55:19;;;;;;;;;;;18.40;48.70;;;;;;5118631;27;42907;-72
2021/12/24 00:57:46;;;;;;;;;;;18.40;48.70;;;;;;5115787;27;43394;-75
2021/12/24 01:00:13;;;;;;;;;;;18.40;48.70;;;;;;5110241;27;42963;-76
2021/12/24 01:02:39;;;;;;;;;;;18.40;48.70;;;;;;5112772;27;43605;-77
2021/12/24 01:05:05;;;;;;;;;;;18.40;48.70;;;;;;5110548;27;42966;-75
2021/12/24 01:07:31;;;;;;;;;;;18.40;48.60;;;;;;5111565;27;43473;-81
2021/12/24 01:09:56;;;;;;;;;;;18.40;48.60;;;;;;5111439;27;43530;-81
2021/12/24 01:12:23;;;;;;;;;;;18.40;48.60;;;;;;5110698;27;42911;-79
2021/12/24 01:14:49;;;;;;;;;;;18.40;48.60;;;;;;5113673;27;42853;-81
2021/12/24 01:19:52;;;;;;;;;;;18.40;48.50;;;;;;5113594;27;43033;-78
2021/12/24 01:25:02;;;;;;;;;;;18.40;48.50;;;;;;5112406;27;43678;-81
2021/12/24 01:30:07;;;;;;;;;;;18.40;48.50;;;;;;5115577;27;42935;-82
2021/12/24 01:38:19;;;;;;;;;;;18.40;48.40;;;;;;5114491;27;42972;-82
2021/12/24 01:43:24;;;;;;;;;;;18.40;48.30;;;;;;5106993;27;42943;-81
2021/12/24 01:45:51;;;;;;;;;;;18.40;48.40;;;;;;5108152;27;42944;-79
2021/12/24 01:48:16;;;;;;;;;;;18.30;48.30;;;;;;5107462;27;43562;-80
2021/12/24 01:50:43;;;;;;;;;;;18.30;48.20;;;;;;5107971;27;42900;-81
2021/12/24 01:53:09;;;;;;;;;;;18.30;48.20;;;;;;5106982;27;42901;-82
2021/12/24 01:55:35;;;;;;;;;;;18.30;48.20;;;;;;5107873;27;43074;-82
2021/12/24 01:58:01;;;;;;;;;;;18.30;48.10;;;;;;5106879;27;43678;-81
2021/12/24 02:00:28;;;;;;;;;;;18.30;48.10;;;;;;5106948;27;43005;-81
2021/12/24 02:02:54;;;;;;;;;;;18.30;48.10;;;;;;5106526;27;44060;-79
2021/12/24 02:05:20;;;;;;;;;;;18.30;48.10;;;;;;5106810;27;42890;-79
2021/12/24 02:07:46;;;;;;;;;;;18.30;48.10;;;;;;5106181;27;43418;-80
2021/12/24 02:10:13;;;;;;;;;;;18.30;48.10;;;;;;5106847;27;43015;-79
2021/12/24 02:12:39;;;;;;;;;;;18.30;48.10;;;;;;5106689;27;43893;-76
2021/12/24 02:15:10;;;;;;;;;;;18.30;48.00;;;;;;5106964;27;42985;-79
2021/12/24 02:18:03;;;;;;;;;;;18.30;48.00;;;;;;5106679;27;43539;-78
2021/12/24 02:28:40;;;;;;;;;;;18.20;47.90;;;;;;5107091;27;43260;-82
2021/12/24 02:31:13;;;;;;;;;;;18.20;47.90;;;;;;5107099;27;42845;-83
2021/12/24 02:33:39;;;;;;;;;;;18.20;48.00;;;;;;5106737;27;43424;-78
2021/12/24 02:36:05;;;;;;;;;;;18.20;47.90;;;;;;5106869;27;43092;-83
2021/12/24 02:38:31;;;;;;;;;;;18.20;47.90;;;;;;5106405;27;42917;-83
2021/12/24 02:40:56;;;;;;;;;;;18.20;47.90;;;;;;5106543;27;42948;-83
2021/12/24 02:43:24;;;;;;;;;;;18.20;47.80;;;;;;5106426;27;43403;-82
2021/12/24 02:45:53;;;;;;;;;;;18.20;47.80;;;;;;5106440;27;43027;-81
2021/12/24 02:54:01;;;;;;;;;;;18.20;47.80;;;;;;5106338;27;42925;-83
2021/12/24 02:56:29;;;;;;;;;;;18.20;47.80;;;;;;5106279;27;42781;-82
2021/12/24 02:58:55;;;;;;;;;;;18.20;47.80;;;;;;5105775;27;43535;-82
2021/12/24 03:01:22;;;;;;;;;;;18.10;47.80;;;;;;5105898;27;42929;-81
2021/12/24 03:03:48;;;;;;;;;;;18.10;47.80;;;;;;5105733;27;44049;-81
2021/12/24 03:06:14;;;;;;;;;;;18.10;47.70;;;;;;5105432;27;43170;-81
2021/12/24 03:08:40;;;;;;;;;;;18.10;47.80;;;;;;5105532;27;43695;-81
2021/12/24 03:11:06;;;;;;;;;;;18.10;47.70;;;;;;5105958;27;42949;-81
2021/12/24 03:13:32;;;;;;;;;;;18.10;47.70;;;;;;5105478;27;42977;-81
2021/12/24 03:15:59;;;;;;;;;;;18.10;47.70;;;;;;5105303;27;43099;-80
2021/12/24 03:18:28;;;;;;;;;;;18.10;47.70;;;;;;5105711;27;43456;-81
2021/12/24 03:21:02;;;;;;;;;;;18.10;47.70;;;;;;5106078;27;42896;-75
2021/12/24 03:23:38;;;;;;;;;;;18.10;47.70;;;;;;5105267;27;43683;-74
2021/12/24 03:26:04;;;;;;;;;;;18.10;47.70;;;;;;5105311;27;43008;-79
2021/12/24 03:28:30;;;;;;;;;;;18.10;47.70;;;;;;5105763;27;43482;-81
2021/12/24 03:30:56;;;;;;;;;;;18.10;47.70;;;;;;5105392;27;43281;-80
2021/12/24 03:33:21;;;;;;;;;;;18.10;47.70;;;;;;5105257;27;43376;-80
2021/12/24 03:35:47;;;;;;;;;;;18.00;47.70;;;;;;5105290;27;43088;-75
2021/12/24 03:38:12;;;;;;;;;;;18.00;47.70;;;;;;5105316;27;42853;-76
2021/12/24 03:40:38;;;;;;;;;;;18.00;47.70;;;;;;5106816;27;42977;-76
2021/12/24 03:43:03;;;;;;;;;;;18.00;47.70;;;;;;5105051;27;43947;-84
2021/12/24 03:45:43;;;;;;;;;;;18.00;47.70;;;;;;5105004;27;42979;-76
2021/12/24 03:56:31;;;;;;;;;;;18.00;47.80;;;;;;5105542;27;42841;-82
2021/12/24 03:58:56;;;;;;;;;;;18.00;47.80;;;;;;5104997;27;43126;-82
2021/12/24 04:01:22;;;;;;;;;;;18.00;47.90;;;;;;5104977;27;42951;-82
2021/12/24 04:03:47;;;;;;;;;;;18.00;47.90;;;;;;5105159;27;42937;-83
2021/12/24 04:06:13;;;;;;;;;;;18.00;48.00;;;;;;5105118;27;42939;-83
2021/12/24 04:08:38;;;;;;;;;;;18.00;48.10;;;;;;5104718;27;42884;-83
2021/12/24 04:11:04;;;;;;;;;;;18.00;48.10;;;;;;5104960;27;43004;-81
2021/12/24 04:13:30;;;;;;;;;;;18.00;48.20;;;;;;5105046;27;42935;-82
2021/12/24 04:15:55;;;;;;;;;;;18.00;48.30;;;;;;5105644;27;42857;-79
2021/12/24 04:26:38;;;;;;;;;;;18.00;48.40;;;;;;5105835;27;42902;-84
2021/12/24 04:29:04;;;;;;;;;;;18.00;48.40;;;;;;5105332;27;43352;-82
2021/12/24 04:31:40;;;;;;;;;;;18.00;48.40;;;;;;5104437;27;42873;-84
2021/12/24 04:34:06;;;;;;;;;;;18.00;48.40;;;;;;5104966;27;43546;-83
2021/12/24 05:03:11;;;;;;;;;;;17.90;48.50;;;;;;5108723;27;42957;-78
2021/12/24 05:08:27;;;;;;;;;;;17.90;48.50;;;;;;5107655;27;42874;-76
2021/12/24 05:10:52;;;;;;;;;;;17.90;48.40;;;;;;5107979;27;44328;-74
2021/12/24 05:13:19;;;;;;;;;;;17.90;48.50;;;;;;5108157;27;42894;-74
2021/12/24 05:15:48;;;;;;;;;;;17.90;48.50;;;;;;5107229;27;43713;-73
2021/12/24 05:19:00;;;;;;;;;;;17.90;48.50;;;;;;5107748;27;42914;-80
2021/12/24 05:21:33;;;;;;;;;;;17.90;48.50;;;;;;5107694;27;44177;-75
2021/12/24 05:24:01;;;;;;;;;;;17.80;48.40;;;;;;5108601;27;42779;-73
2021/12/24 05:26:27;;;;;;;;;;;17.80;48.40;;;;;;5108362;27;43677;-73
2021/12/24 05:28:53;;;;;;;;;;;17.80;48.40;;;;;;5107796;27;42998;-73
2021/12/24 05:31:21;;;;;;;;;;;17.90;48.50;;;;;;5107952;27;43626;-78
2021/12/24 05:33:47;;;;;;;;;;;17.80;48.40;;;;;;5107080;27;42961;-76
2021/12/24 05:36:12;;;;;;;;;;;17.80;48.40;;;;;;5107336;27;44038;-81
2021/12/24 05:38:38;;;;;;;;;;;17.80;48.40;;;;;;5108329;27;42794;-74
2021/12/24 05:41:03;;;;;;;;;;;17.80;48.40;;;;;;5107843;27;42913;-80
2021/12/24 05:43:29;;;;;;;;;;;17.80;48.40;;;;;;5108074;27;42812;-80
2021/12/24 05:45:55;;;;;;;;;;;17.80;48.40;;;;;;5107686;27;43323;-81
2021/12/24 05:48:20;;;;;;;;;;;17.80;48.40;;;;;;5107140;27;42885;-77
2021/12/24 05:50:45;;;;;;;;;;;17.80;48.40;;;;;;5107434;27;42955;-79
2021/12/24 05:53:11;;;;;;;;;;;17.80;48.40;;;;;;5107111;27;43110;-79
2021/12/24 05:55:37;;;;;;;;;;;17.80;48.40;;;;;;5106502;27;42948;-74
2021/12/24 05:58:06;;;;;;;;;;;17.80;48.40;;;;;;5107503;27;43132;-76
2021/12/24 06:00:32;;;;;;;;;;;17.80;48.40;;;;;;5107538;27;42940;-80
2021/12/24 06:02:57;;;;;;;;;;;17.80;48.40;;;;;;5107813;27;43107;-80
2021/12/24 06:05:23;;;;;;;;;;;17.80;48.50;;;;;;5107099;27;43597;-80
2021/12/24 06:07:48;;;;;;;;;;;17.80;48.50;;;;;;5107055;27;42922;-80
2021/12/24 06:10:14;;;;;;;;;;;17.80;48.50;;;;;;5106863;27;42891;-81
2021/12/24 06:12:39;;;;;;;;;;;17.80;48.60;;;;;;5106409;27;42902;-79
2021/12/24 06:15:07;;;;;;;;;;;17.80;48.60;;;;;;5123666;27;43014;-73
2021/12/24 06:17:36;;;;;;;;;;;17.80;48.60;;;;;;5127785;27;42923;-72
2021/12/24 06:20:02;;;;;;;;;;;17.80;48.60;;;;;;5126203;27;44258;-79
2021/12/24 06:22:28;;;;;;;;;;;17.70;48.50;;;;;;5127830;27;43107;-79
2021/12/24 06:24:53;;;;;;;;;;;17.80;48.60;;;;;;5127712;27;43170;-79
2021/12/24 06:27:19;;;;;;;;;;;17.70;48.60;;;;;;5127520;27;42815;-79
2021/12/24 06:29:44;;;;;;;;;;;17.70;48.60;;;;;;5127740;27;44223;-79
2021/12/24 06:32:10;;;;;;;;;;;17.70;48.50;;;;;;5124838;27;42882;-77
2021/12/24 06:34:36;;;;;;;;;;;17.70;48.50;;;;;;5111428;27;43000;-79
2021/12/24 06:37:02;;;;;;;;;;;17.70;48.60;;;;;;5117245;27;43911;-79
2021/12/24 06:39:27;;;;;;;;;;;17.70;48.60;;;;;;5116714;27;43439;-78
2021/12/24 06:41:54;;;;;;;;;;;17.70;48.50;;;;;;5113922;27;43050;-79
2021/12/24 06:44:21;;;;;;;;;;;17.70;48.60;;;;;;5113523;27;43033;-76
2021/12/24 06:46:46;;;;;;;;;;;17.70;48.60;;;;;;5112250;27;42986;-78
2021/12/24 06:49:13;;;;;;;;;;;17.70;48.60;;;;;;5117964;27;42933;-77
2021/12/24 06:51:38;;;;;;;;;;;17.70;48.60;;;;;;5114824;27;42884;-78
2021/12/24 06:54:04;;;;;;;;;;;17.70;48.60;;;;;;5119299;27;43690;-80
2021/12/24 06:56:30;;;;;;;;;;;17.70;48.60;;;;;;5107333;27;42852;-81
2021/12/24 06:58:56;;;;;;;;;;;17.70;48.60;;;;;;5106041;27;43542;-79
2021/12/24 07:01:21;;;;;;;;;;;17.70;48.60;;;;;;5106789;27;43174;-80
2021/12/24 07:03:47;;;;;;;;;;;17.70;48.60;;;;;;5118319;27;43733;-79
2021/12/24 07:06:12;;;;;;;;;;;17.70;48.60;;;;;;5114157;27;43269;-77
2021/12/24 07:08:38;;;;;;;;;;;17.70;48.60;;;;;;5113620;27;43524;-76
2021/12/24 07:11:04;;;;;;;;;;;17.70;48.60;;;;;;5115423;27;43137;-75
2021/12/24 07:13:29;;;;;;;;;;;17.70;48.70;;;;;;5115549;27;44419;-78
2021/12/24 07:15:55;;;;;;;;;;;17.70;48.70;;;;;;5116534;27;42995;-76
2021/12/24 07:18:21;;;;;;;;;;;17.70;48.70;;;;;;5123557;27;43756;-75
2021/12/24 07:20:47;;;;;;;;;;;17.70;47.70;;;;;;5122914;27;43157;-77
2021/12/24 07:23:12;;;;;;;;;;;16.90;41.50;;;;;;5114529;27;42889;-77
2021/12/24 07:25:38;;;;;;;;;;;15.80;39.50;;;;;;5106675;27;42947;-76
2021/12/24 07:28:04;;;;;;;;;;;14.90;39.50;;;;;;5106985;27;43385;-79
2021/12/24 07:30:30;;;;;;;;;;;14.40;39.60;;;;;;5106512;27;42905;-77
2021/12/24 07:32:55;;;;;;;;;;;14.10;39.60;;;;;;5106337;27;43042;-79
2021/12/24 07:35:21;;;;;;;;;;;13.90;39.40;;;;;;5125289;27;43087;-79
2021/12/24 07:37:47;;;;;;;;;;;13.60;39.80;;;;;;5126484;27;42978;-81
2021/12/24 07:40:16;;;;;;;;;;;13.40;40.10;;;;;;5122568;27;43015;-78
2021/12/24 07:42:42;;;;;;;;;;;13.40;40.20;;;;;;5111973;27;43600;-80
2021/12/24 07:45:09;;;;;;;;;;;13.30;39.80;;;;;;5110490;27;43002;-77
2021/12/24 07:47:39;;;;;;;;;;;13.20;39.90;;;;;;5125881;27;43740;-77
2021/12/24 07:53:02;;;;;;;;;;;13.00;40.20;;;;;;5114198;27;42816;-76
2021/12/24 07:55:28;;;;;;;;;;;12.80;40.10;;;;;;5115855;27;42790;-79
2021/12/24 07:57:54;;;;;;;;;;;12.70;40.20;;;;;;5110506;27;43610;-72
2021/12/24 08:00:22;;;;;;;;;;;12.70;40.50;;;;;;5117013;27;43105;-74
2021/12/24 08:02:48;;;;;;;;;;;12.60;40.70;;;;;;5106499;27;43883;-74
2021/12/24 08:05:14;;;;;;;;;;;12.60;40.80;;;;;;5112222;27;43044;-76
2021/12/24 08:07:40;;;;;;;;;;;12.50;40.50;;;;;;5104464;27;43728;-76
2021/12/24 08:10:06;;;;;;;;;;;12.40;40.90;;;;;;5110520;27;43025;-76
2021/12/24 08:12:33;;;;;;;;;;;12.60;41.30;;;;;;5113896;27;62272;-78
2021/12/24 08:14:58;;;;;;;;;;;12.80;41.30;;;;;;5115282;27;43407;-76
2021/12/24 08:17:24;;;;;;;;;;;12.90;40.90;;;;;;5107005;27;43574;-77
2021/12/24 08:19:49;;;;;;;;;;;13.00;41.40;;;;;;5108552;27;43038;-80
2021/12/24 08:22:15;;;;;;;;;;;13.50;41.90;;;;;;5107205;27;43625;-80
2021/12/24 08:24:41;;;;;;;;;;;14.10;41.90;;;;;;5111321;27;42905;-78
2021/12/24 08:27:07;;;;;;;;;;;14.40;41.90;;;;;;5109576;27;43024;-77
2021/12/24 08:29:33;;;;;;;;;;;14.70;41.80;;;;;;5106196;27;43577;-79
2021/12/24 08:31:58;;;;;;;;;;;14.90;41.90;;;;;;5108076;27;43509;-73
2021/12/24 08:34:24;;;;;;;;;;;15.10;42.00;;;;;;5112214;27;42999;-74
2021/12/24 08:36:52;;;;;;;;;;;15.20;42.00;;;;;;5113896;27;43097;-73
2021/12/24 08:39:19;;;;;;;;;;;15.40;42.20;;;;;;5110690;27;42991;-75
2021/12/24 08:41:46;;;;;;;;;;;15.50;42.30;;;;;;5099268;27;43495;-71
2021/12/24 08:44:12;;;;;;;;;;;14.70;42.00;;;;;;5109397;27;43094;-76
2021/12/24 08:46:37;;;;;;;;;;;15.70;42.60;;;;;;5108280;27;43821;-74
2021/12/24 08:49:03;;;;;;;;;;;15.80;42.80;;;;;;5111893;27;43001;-72
2021/12/24 08:51:29;;;;;;;;;;;15.90;42.80;;;;;;5106743;27;42995;-74
2021/12/24 08:53:55;;;;;;;;;;;16.00;42.90;;;;;;5115322;27;42962;-76
2021/12/24 08:56:22;;;;;;;;;;;16.00;43.00;;;;;;5125027;27;43702;-76
2021/12/24 08:58:47;;;;;;;;;;;16.10;43.10;;;;;;5117269;27;43045;-73
2021/12/24 09:01:13;;;;;;;;;;;16.10;43.10;;;;;;5121495;27;43393;-73
2021/12/24 09:03:38;;;;;;;;;;;18.10;44.10;;;;;;5101740;27;43066;-77
2021/12/24 09:06:04;;;;;;;;;;;16.30;43.20;;;;;;5104150;27;43432;-80
2021/12/24 09:08:29;;;;;;;;;;;16.30;43.30;;;;;;5103929;27;43153;-79
2021/12/24 09:10:55;;;;;;;;;;;16.30;43.30;;;;;;5105002;27;42868;-79
2021/12/24 09:13:20;;;;;;;;;;;16.30;43.30;;;;;;5104390;27;42925;-77
2021/12/24 09:15:46;;;;;;;;;;;17.10;43.80;;;;;;5103966;27;42955;-80
2021/12/24 09:18:12;;;;;;;;;;;16.40;43.50;;;;;;5105702;27;42970;-74
2021/12/24 09:20:42;;;;;;;;;;;16.40;43.50;;;;;;5105987;27;43237;-79
2021/12/24 09:23:08;;;;;;;;;;;16.50;43.60;;;;;;5114250;27;43037;-79
2021/12/24 09:25:34;;;;;;;;;;;16.50;43.70;;;;;;5120293;27;42939;-78
2021/12/24 09:28:00;;;;;;;;;;;16.50;43.70;;;;;;5113837;27;42946;-80
2021/12/24 09:30:27;;;;;;;;;;;16.50;43.80;;;;;;5108605;27;43520;-78
2021/12/24 09:32:52;;;;;;;;;;;16.50;43.90;;;;;;5112590;27;43001;-78
2021/12/24 09:35:19;;;;;;;;;;;16.50;43.90;;;;;;5121089;27;43790;-86
2021/12/24 09:37:44;;;;;;;;;;;16.50;44.00;;;;;;5111580;27;42981;-76
2021/12/24 09:40:11;;;;;;;;;;;16.50;44.10;;;;;;5107636;27;43141;-81
2021/12/24 09:42:37;;;;;;;;;;;16.60;44.00;;;;;;5123188;27;43093;-79
2021/12/24 09:45:04;;;;;;;;;;;16.70;44.40;;;;;;5124249;27;43085;-74
2021/12/24 09:47:29;;;;;;;;;;;16.70;44.60;;;;;;5116372;27;43071;-73
2021/12/24 09:49:55;;;;;;;;;;;16.80;44.70;;;;;;5105498;27;43127;-78
2021/12/24 09:52:21;;;;;;;;;;;16.80;45.00;;;;;;5121991;27;42919;-75
2021/12/24 09:54:47;;;;;;;;;;;16.80;45.30;;;;;;5128178;27;43966;-81
2021/12/24 09:57:13;;;;;;;;;;;16.80;45.20;;;;;;5107742;27;43223;-71
2021/12/24 09:59:39;;;;;;;;;;;16.90;45.10;;;;;;5121591;27;43002;-79
2021/12/24 10:02:07;;;;;;;;;;;16.90;45.10;;;;;;5126922;27;43060;-72
2021/12/24 10:04:34;;;;;;;;;;;16.90;45.20;;;;;;5113836;27;43455;-74
2021/12/24 10:07:03;;;;;;;;;;;17.00;45.30;;;;;;5124189;27;42756;-76
2021/12/24 10:09:39;;;;;;;;;;;17.00;45.40;;;;;;5118620;27;42989;-72
2021/12/24 10:12:30;;;;;;;;;;;17.00;45.60;;;;;;5126754;27;43083;-75
2021/12/24 10:14:57;;;;;;;;;;;17.00;45.70;;;;;;5106063;27;43545;-74
2021/12/24 10:17:28;;;;;;;;;;;17.00;45.80;;;;;;5106647;27;43081;-73
2021/12/24 10:19:56;;;;;;;;;;;17.00;46.00;;;;;;5118074;27;43409;-76
2021/12/24 10:22:22;;;;;;;;;;;17.00;45.80;;;;;;5105775;27;42923;-72
2021/12/24 10:25:01;;;;;;;;;;;17.10;46.00;;;;;;5114420;27;44949;-73
2021/12/24 10:27:32;;;;;;;;;;;17.10;46.10;;;;;;5127462;27;42968;-75
2021/12/24 10:29:58;;;;;;;;;;;17.10;46.00;;;;;;5125793;27;43784;-77
2021/12/24 10:32:24;;;;;;;;;;;17.10;46.00;;;;;;5126492;27;42953;-74
2021/12/24 10:34:49;;;;;;;;;;;17.10;46.00;;;;;;5125807;27;42917;-75
2021/12/24 10:37:18;;;;;;;;;;;17.10;46.10;;;;;;5124342;27;43189;-80
2021/12/24 10:39:48;;;;;;;;;;;17.10;46.10;;;;;;5118455;27;42969;-75
2021/12/24 10:42:14;;;;;;;;;;;17.10;46.20;;;;;;5108583;27;43023;-74
2021/12/24 10:44:41;;;;;;;;;;;17.10;46.00;;;;;;5105943;27;43645;-77
2021/12/24 10:47:09;;;;;;;;;;;17.10;46.10;;;;;;5113525;27;43060;-74
2021/12/24 10:54:55;;;;;;;;;;;17.20;46.20;;;;;;5117391;27;43117;-75
2021/12/24 10:57:25;;;;;;;;;;;17.20;46.30;;;;;;5127351;27;42848;-74
2021/12/24 10:59:53;;;;;;;;;;;17.20;46.30;;;;;;5124360;27;43493;-75
2021/12/24 11:02:19;;;;;;;;;;;17.20;46.10;;;;;;5127284;27;42828;-70
2021/12/24 11:04:45;;;;;;;;;;;17.20;46.20;;;;;;5127271;27;42915;-74
2021/12/24 11:07:29;;;;;;;;;;;17.20;46.70;;;;;;5106260;27;43091;-73
2021/12/24 11:10:11;;;;;;;;;;;17.20;46.20;;;;;;5120535;27;43553;-75
2021/12/24 11:12:39;;;;;;;;;;;17.30;46.40;;;;;;5108113;27;43582;-73
2021/12/24 11:15:17;;;;;;;;;;;17.20;46.30;;;;;;5112449;27;43490;-77
2021/12/24 11:17:42;;;;;;;;;;;17.30;46.40;;;;;;5126286;27;42976;-78
2021/12/24 11:20:11;;;;;;;;;;;17.30;46.40;;;;;;5121003;27;43094;-77
2021/12/24 11:22:55;;;;;;;;;;;17.30;46.50;;;;;;5106426;27;42969;-76
2021/12/24 11:25:22;;;;;;;;;;;17.30;46.40;;;;;;5112977;27;43464;-78
2021/12/24 11:27:47;;;;;;;;;;;17.30;46.40;;;;;;5107623;27;42900;-81
2021/12/24 11:30:14;;;;;;;;;;;17.30;46.40;;;;;;5119019;27;43386;-83
2021/12/24 11:32:40;;;;;;;;;;;17.30;46.40;;;;;;5126642;27;42755;-87
2021/12/24 11:35:06;;;;;;;;;;;17.30;46.50;;;;;;5113956;27;43222;-89
2021/12/24 11:37:33;;;;;;;;;;;17.40;46.50;;;;;;5107332;27;43011;-85
2021/12/24 11:39:58;;;;;;;;;;;17.30;46.70;;;;;;5111284;27;43529;-86
2021/12/24 11:42:25;;;;;;;;;;;17.40;46.70;;;;;;5106918;27;42971;-88
2021/12/24 11:44:51;;;;;;;;;;;17.40;46.70;;;;;;5111019;27;43566;-75
2021/12/24 11:47:17;;;;;;;;;;;17.40;46.70;;;;;;5127288;27;42903;-82
2021/12/24 11:49:42;;;;;;;;;;;17.40;46.80;;;;;;5106688;27;43737;-78
2021/12/24 11:52:08;;;;;;;;;;;17.40;46.60;;;;;;5114883;27;43006;-81
2021/12/24 11:54:34;;;;;;;;;;;17.40;46.50;;;;;;5124054;27;42938;-75
2021/12/24 11:56:59;;;;;;;;;;;17.40;46.50;;;;;;5125921;27;42988;-78
2021/12/24 11:59:38;;;;;;;;;;;17.40;46.50;;;;;;5110271;27;43256;-75
2021/12/24 12:02:04;;;;;;;;;;;17.40;46.50;;;;;;5114691;27;42898;-76
2021/12/24 12:04:30;;;;;;;;;;;17.50;46.50;;;;;;5127184;27;43389;-76
2021/12/24 12:07:16;;;;;;;;;;;17.50;46.50;;;;;;5125426;27;42983;-72
2021/12/24 12:09:45;;;;;;;;;;;17.50;46.50;;;;;;5118799;27;43093;-72
2021/12/24 12:12:14;;;;;;;;;;;17.50;46.50;;;;;;5117372;27;42972;-75
2021/12/24 12:14:40;;;;;;;;;;;17.50;46.70;;;;;;5123438;27;43413;-75
2021/12/24 12:17:07;;;;;;;;;;;17.50;47.00;;;;;;5119339;27;42991;-75
2021/12/24 12:22:27;;;;;;;;;;;17.60;47.60;;;;;;5110676;27;43044;-72
2021/12/24 12:24:59;;;;;;;;;;;17.60;47.90;;;;;;5105473;27;42996;-72
2021/12/24 12:27:33;;;;;;;;;;;17.70;48.00;;;;;;5106300;27;42983;-74
2021/12/24 12:30:19;;;;;;;;;;;17.70;48.20;;;;;;5103781;27;43610;-78
2021/12/24 12:32:45;;;;;;;;;;;17.70;48.70;;;;;;5105482;27;42944;-73
2021/12/24 12:35:11;;;;;;;;;;;17.10;42.90;;;;;;5107038;27;43033;-79
2021/12/24 12:37:50;;;;;;;;;;;16.40;41.70;;;;;;5103960;27;43070;-86
2021/12/24 12:40:16;;;;;;;;;;;15.90;41.30;;;;;;5106037;27;42810;-83
2021/12/24 12:45:17;;;;;;;;;;;15.40;40.90;;;;;;5122376;27;43055;-77
2021/12/24 12:48:00;;;;;;;;;;;15.30;41.10;;;;;;5122512;27;43060;-84
2021/12/24 12:50:26;;;;;;;;;;;15.20;41.10;;;;;;5104405;27;43647;-80
2021/12/24 12:53:11;;;;;;;;;;;15.20;41.40;;;;;;5120985;27;42987;-81
2021/12/24 12:55:37;;;;;;;;;;;15.50;41.80;;;;;;5117931;27;43808;-80
2021/12/24 12:58:18;;;;;;;;;;;15.90;41.90;;;;;;5103911;27;43118;-77
2021/12/24 13:01:03;;;;;;;;;;;16.10;41.10;;;;;;5107723;27;44878;-80
2021/12/24 13:03:28;;;;;;;;;;;15.70;40.00;;;;;;5125481;27;42955;-81
2021/12/24 13:05:58;;;;;;;;;;;15.70;40.90;;;;;;5122824;27;42956;-81
2021/12/24 13:08:25;;;;;;;;;;;16.00;41.50;;;;;;5119052;27;43022;-81
2021/12/24 13:11:07;;;;;;;;;;;16.20;41.60;;;;;;5105302;27;42955;-83
2021/12/24 13:13:41;;;;;;;;;;;16.40;41.80;;;;;;5104901;27;43005;-81
2021/12/24 13:16:16;;;;;;;;;;;16.60;42.00;;;;;;5113965;27;42920;-83
2021/12/24 13:18:42;;;;;;;;;;;16.70;42.10;;;;;;5126926;27;43013;-80
2021/12/24 13:23:37;;;;;;;;;;;16.80;42.30;;;;;;5129345;27;43030;-81
2021/12/24 13:26:16;;;;;;;;;;;16.90;42.40;;;;;;5119541;27;43603;-81
2021/12/24 13:28:54;;;;;;;;;;;17.00;42.50;;;;;;5119572;27;43081;-83
2021/12/24 13:31:19;;;;;;;;;;;17.00;42.60;;;;;;5122244;27;43569;-83
2021/12/24 13:33:48;;;;;;;;;;;17.10;42.60;;;;;;5114045;27;43172;-82
2021/12/24 13:36:13;;;;;;;;;;;17.10;42.70;;;;;;5115207;27;43678;-76
2021/12/24 13:38:39;;;;;;;;;;;17.10;42.70;;;;;;5115808;27;43061;-80
2021/12/24 13:41:04;;;;;;;;;;;17.10;42.70;;;;;;5115629;27;43837;-81
2021/12/24 13:43:34;;;;;;;;;;;17.20;42.80;;;;;;5128721;27;42853;-81
2021/12/24 13:46:06;;;;;;;;;;;17.20;42.80;;;;;;5115569;27;43124;-80
2021/12/24 13:48:44;;;;;;;;;;;17.20;42.90;;;;;;5108012;27;43051;-80
2021/12/24 13:56:38;;;;;;;;;;;17.30;43.10;;;;;;5109082;27;43086;-82
2021/12/24 13:59:04;;;;;;;;;;;17.30;43.10;;;;;;5107946;27;42962;-78
2021/12/24 14:01:30;;;;;;;;;;;17.30;43.10;;;;;;5126213;27;43636;-78
2021/12/24 14:03:56;;;;;;;;;;;17.30;43.20;;;;;;5127086;27;42817;-78
2021/12/24 14:06:35;;;;;;;;;;;17.30;43.20;;;;;;5126657;27;42986;-76
2021/12/24 14:09:13;;;;;;;;;;;17.40;43.30;;;;;;5120060;27;42995;-79
2021/12/24 14:11:39;;;;;;;;;;;17.40;43.40;;;;;;5105902;27;43768;-75
2021/12/24 14:14:19;;;;;;;;;;;17.40;43.40;;;;;;5109747;27;42938;-78
2021/12/24 14:19:29;;;;;;;;;;;17.40;43.50;;;;;;5110333;27;43123;-81
2021/12/24 14:22:04;;;;;;;;;;;17.40;43.50;;;;;;5126336;27;43725;-80
2021/12/24 14:24:36;;;;;;;;;;;17.40;43.50;;;;;;5114990;27;42881;-77
2021/12/24 14:27:01;;;;;;;;;;;17.50;43.60;;;;;;5106896;27;43326;-81
2021/12/24 14:29:33;;;;;;;;;;;17.50;43.70;;;;;;5107678;27;43109;-78
2021/12/24 14:31:58;;;;;;;;;;;17.50;43.70;;;;;;5107404;27;43597;-82
2021/12/24 14:34:33;;;;;;;;;;;17.50;43.80;;;;;;5124353;27;43769;-79
2021/12/24 14:36:59;;;;;;;;;;;17.50;43.80;;;;;;5126810;27;43064;-79
2021/12/24 14:39:25;;;;;;;;;;;17.50;43.80;;;;;;5125796;27;42870;-78
2021/12/24 14:42:10;;;;;;;;;;;17.50;43.90;;;;;;5111713;27;42979;-78
2021/12/24 14:44:35;;;;;;;;;;;17.50;43.90;;;;;;5105683;27;43004;-79
2021/12/24 14:47:01;;;;;;;;;;;17.50;43.90;;;;;;5110497;27;43047;-79
2021/12/24 14:49:33;;;;;;;;;;;17.60;44.00;;;;;;5126351;27;42966;-79
2021/12/24 14:52:18;;;;;;;;;;;17.60;44.00;;;;;;5113629;27;43064;-80
2021/12/24 14:55:02;;;;;;;;;;;17.60;44.00;;;;;;5106426;27;42972;-80
2021/12/24 14:57:27;;;;;;;;;;;17.60;44.00;;;;;;5107814;27;43542;-79
2021/12/24 14:59:53;;;;;;;;;;;17.60;44.10;;;;;;5109082;27;43062;-79
2021/12/24 15:02:18;;;;;;;;;;;17.60;44.10;;;;;;5107790;27;42955;-79
2021/12/24 15:04:53;;;;;;;;;;;17.60;44.10;;;;;;5106523;27;42844;-78
2021/12/24 15:07:19;;;;;;;;;;;17.60;44.10;;;;;;5119513;27;43639;-78
2021/12/24 15:09:46;;;;;;;;;;;17.60;44.20;;;;;;5115851;27;43216;-77
2021/12/24 15:12:15;;;;;;;;;;;17.60;44.20;;;;;;5112709;27;43021;-79
2021/12/24 15:14:41;;;;;;;;;;;17.60;44.20;;;;;;5105343;27;43044;-78
2021/12/24 15:17:06;;;;;;;;;;;17.60;44.20;;;;;;5106832;27;43170;-83
2021/12/24 15:19:32;;;;;;;;;;;17.70;44.30;;;;;;5117701;27;42889;-76
2021/12/24 15:21:57;;;;;;;;;;;17.50;42.90;;;;;;5125239;27;43243;-77
2021/12/24 15:24:23;;;;;;;;;;;17.20;42.10;;;;;;5126909;27;43203;-77
2021/12/24 15:26:49;;;;;;;;;;;16.80;41.20;;;;;;5117951;27;42830;-80
2021/12/24 15:29:14;;;;;;;;;;;16.50;40.80;;;;;;5127126;27;43018;-73
2021/12/24 15:31:41;;;;;;;;;;;16.20;40.80;;;;;;5136901;27;42906;-73
2021/12/24 15:34:06;;;;;;;;;;;16.00;40.90;;;;;;5124151;27;43073;-76
2021/12/24 15:36:32;;;;;;;;;;;15.90;40.90;;;;;;5107084;27;42824;-76
2021/12/24 15:38:58;;;;;;;;;;;15.80;40.90;;;;;;5112020;27;43018;-74
2021/12/24 15:41:23;;;;;;;;;;;16.00;41.60;;;;;;5106814;27;42943;-74
2021/12/24 15:43:49;;;;;;;;;;;16.30;42.30;;;;;;5118265;27;42920;-80
2021/12/24 15:46:15;;;;;;;;;;;16.50;42.10;;;;;;5121285;27;44210;-80
2021/12/24 15:48:41;;;;;;;;;;;16.70;42.20;;;;;;5114326;27;43122;-79
2021/12/24 15:51:07;;;;;;;;;;;16.80;42.40;;;;;;5106728;27;43498;-83
2021/12/24 15:53:34;;;;;;;;;;;17.00;42.60;;;;;;5126899;27;43152;-76
2021/12/24 15:56:01;;;;;;;;;;;17.00;42.60;;;;;;5115125;27;43410;-76
2021/12/24 15:58:27;;;;;;;;;;;17.10;42.80;;;;;;5111799;27;42983;-82
2021/12/24 16:00:53;;;;;;;;;;;17.30;42.60;;;;;;5109639;27;43629;-82
2021/12/24 16:03:19;;;;;;;;;;;16.90;40.50;;;;;;5116401;27;43030;-80
2021/12/24 16:05:46;;;;;;;;;;;16.50;40.50;;;;;;5109313;27;43407;-72
2021/12/24 16:08:12;;;;;;;;;;;16.20;41.10;;;;;;5105689;27;43043;-74
2021/12/24 16:10:38;;;;;;;;;;;16.40;42.30;;;;;;5105390;27;43053;-77
2021/12/24 16:13:04;;;;;;;;;;;16.80;43.70;;;;;;5111605;27;42991;-79
2021/12/24 16:15:30;;;;;;;;;;;17.00;43.10;;;;;;5119342;27;43042;-82